sensor_id;sensor_type;location;lat;lon;timestamp;temperature;humidity
50955;DHT22;36966;48.064;-0.792;2023-03-14T00:02:07;17.90;56.10
50955;DHT22;36966;48.064;-0.792;2023-03-14T00:04:26;17.90;56.10
50955;DHT22;36966;48.064;-0.792;2023-03-14T00:06:45;17.90;56.00
50955;DHT22;36966;48.064;-0.792;2023-03-14T00:09:06;17.90;56.00
50955;DHT22;36966;48.064;-0.792;2023-03-14T00:11:25;17.90;56.30
50955;DHT22;36966;48.064;-0.792;2023-03-14T00:13:52;17.90;56.20
50955;DHT22;36966;48.064;-0.792;2023-03-14T00:16:12;17.90;56.20
50955;DHT22;36966;48.064;-0.792;2023-03-14T00:18:32;17.90;56.10
50955;DHT22;36966;48.064;-0.792;2023-03-14T00:20:52;17.90;56.20
50955;DHT22;36966;48.064;-0.792;2023-03-14T00:23:11;17.90;56.10
50955;DHT22;36966;48.064;-0.792;2023-03-14T00:25:30;17.90;56.20
50955;DHT22;36966;48.064;-0.792;2023-03-14T00:27:52;17.90;56.20
50955;DHT22;36966;48.064;-0.792;2023-03-14T00:30:12;17.80;56.20
50955;DHT22;36966;48.064;-0.792;2023-03-14T00:32:32;17.90;56.20
50955;DHT22;36966;48.064;-0.792;2023-03-14T00:34:51;17.90;56.20
50955;DHT22;36966;48.064;-0.792;2023-03-14T00:37:10;17.80;56.30
50955;DHT22;36966;48.064;-0.792;2023-03-14T00:39:29;17.80;56.30
50955;DHT22;36966;48.064;-0.792;2023-03-14T00:41:48;17.80;56.20
50955;DHT22;36966;48.064;-0.792;2023-03-14T00:44:07;17.80;56.20
50955;DHT22;36966;48.064;-0.792;2023-03-14T00:46:26;17.80;56.30
50955;DHT22;36966;48.064;-0.792;2023-03-14T00:48:46;17.80;56.30
50955;DHT22;36966;48.064;-0.792;2023-03-14T00:51:07;17.80;56.20
50955;DHT22;36966;48.064;-0.792;2023-03-14T00:53:27;17.80;56.20
50955;DHT22;36966;48.064;-0.792;2023-03-14T00:55:46;17.80;56.30
50955;DHT22;36966;48.064;-0.792;2023-03-14T00:58:05;17.80;56.30
50955;DHT22;36966;48.064;-0.792;2023-03-14T01:00:25;17.80;56.30
50955;DHT22;36966;48.064;-0.792;2023-03-14T01:02:44;17.80;56.30
50955;DHT22;36966;48.064;-0.792;2023-03-14T01:05:03;17.80;56.20
50955;DHT22;36966;48.064;-0.792;2023-03-14T01:07:23;17.80;56.40
50955;DHT22;36966;48.064;-0.792;2023-03-14T01:09:43;17.80;56.50
50955;DHT22;36966;48.064;-0.792;2023-03-14T01:12:02;17.80;56.50
50955;DHT22;36966;48.064;-0.792;2023-03-14T01:14:21;17.80;56.40
50955;DHT22;36966;48.064;-0.792;2023-03-14T01:16:41;17.80;56.40
50955;DHT22;36966;48.064;-0.792;2023-03-14T01:19:01;17.80;56.40
50955;DHT22;36966;48.064;-0.792;2023-03-14T01:21:25;17.80;56.40
50955;DHT22;36966;48.064;-0.792;2023-03-14T01:23:45;17.80;56.40
50955;DHT22;36966;48.064;-0.792;2023-03-14T01:26:08;17.80;56.50
50955;DHT22;36966;48.064;-0.792;2023-03-14T01:28:28;17.80;56.40
50955;DHT22;36966;48.064;-0.792;2023-03-14T01:30:47;17.80;56.60
50955;DHT22;36966;48.064;-0.792;2023-03-14T01:33:06;17.80;56.50
50955;DHT22;36966;48.064;-0.792;2023-03-14T01:35:25;17.80;56.60
50955;DHT22;36966;48.064;-0.792;2023-03-14T01:37:44;17.80;56.50
50955;DHT22;36966;48.064;-0.792;2023-03-14T01:40:04;17.80;56.70
50955;DHT22;36966;48.064;-0.792;2023-03-14T01:42:24;17.80;56.60
50955;DHT22;36966;48.064;-0.792;2023-03-14T01:45:02;17.80;56.70
50955;DHT22;36966;48.064;-0.792;2023-03-14T01:47:21;17.80;56.70
50955;DHT22;36966;48.064;-0.792;2023-03-14T01:49:41;17.80;56.70
50955;DHT22;36966;48.064;-0.792;2023-03-14T01:52:10;17.80;56.60
50955;DHT22;36966;48.064;-0.792;2023-03-14T01:54:44;17.80;56.60
50955;DHT22;36966;48.064;-0.792;2023-03-14T01:59:34;17.80;56.60
50955;DHT22;36966;48.064;-0.792;2023-03-14T02:01:55;17.80;56.70
50955;DHT22;36966;48.064;-0.792;2023-03-14T02:04:16;17.80;56.80
50955;DHT22;36966;48.064;-0.792;2023-03-14T02:06:58;17.80;56.70
50955;DHT22;36966;48.064;-0.792;2023-03-14T02:09:19;17.80;56.60
50955;DHT22;36966;48.064;-0.792;2023-03-14T02:11:39;17.80;56.60
50955;DHT22;36966;48.064;-0.792;2023-03-14T02:13:59;17.80;56.60
50955;DHT22;36966;48.064;-0.792;2023-03-14T02:16:19;17.80;56.60
50955;DHT22;36966;48.064;-0.792;2023-03-14T02:18:39;17.80;56.60
50955;DHT22;36966;48.064;-0.792;2023-03-14T02:21:05;17.80;56.60
50955;DHT22;36966;48.064;-0.792;2023-03-14T02:23:58;17.80;56.60
50955;DHT22;36966;48.064;-0.792;2023-03-14T02:27:06;17.80;56.40
50955;DHT22;36966;48.064;-0.792;2023-03-14T02:29:27;17.80;56.40
50955;DHT22;36966;48.064;-0.792;2023-03-14T02:31:47;17.80;56.50
50955;DHT22;36966;48.064;-0.792;2023-03-14T02:34:06;17.80;56.30
50955;DHT22;36966;48.064;-0.792;2023-03-14T02:36:26;17.80;56.40
50955;DHT22;36966;48.064;-0.792;2023-03-14T02:39:06;17.80;56.40
50955;DHT22;36966;48.064;-0.792;2023-03-14T02:41:29;17.80;56.40
50955;DHT22;36966;48.064;-0.792;2023-03-14T02:43:49;17.80;56.40
50955;DHT22;36966;48.064;-0.792;2023-03-14T02:46:11;17.80;56.40
50955;DHT22;36966;48.064;-0.792;2023-03-14T02:48:40;17.70;56.40
50955;DHT22;36966;48.064;-0.792;2023-03-14T02:51:01;17.70;56.30
50955;DHT22;36966;48.064;-0.792;2023-03-14T02:53:41;17.80;56.30
50955;DHT22;36966;48.064;-0.792;2023-03-14T02:56:01;17.80;56.30
50955;DHT22;36966;48.064;-0.792;2023-03-14T02:58:21;17.70;56.30
50955;DHT22;36966;48.064;-0.792;2023-03-14T03:00:40;17.70;56.30
50955;DHT22;36966;48.064;-0.792;2023-03-14T03:02:59;17.70;56.20
50955;DHT22;36966;48.064;-0.792;2023-03-14T03:05:18;17.70;56.00
50955;DHT22;36966;48.064;-0.792;2023-03-14T03:07:37;17.70;56.10
50955;DHT22;36966;48.064;-0.792;2023-03-14T03:09:57;17.70;56.00
50955;DHT22;36966;48.064;-0.792;2023-03-14T03:12:16;17.70;55.40
50955;DHT22;36966;48.064;-0.792;2023-03-14T03:14:35;17.70;56.00
50955;DHT22;36966;48.064;-0.792;2023-03-14T03:16:56;17.70;56.10
50955;DHT22;36966;48.064;-0.792;2023-03-14T03:19:15;17.70;56.00
50955;DHT22;36966;48.064;-0.792;2023-03-14T03:21:36;17.70;56.10
50955;DHT22;36966;48.064;-0.792;2023-03-14T03:23:56;17.70;56.00
50955;DHT22;36966;48.064;-0.792;2023-03-14T03:26:15;17.70;56.20
50955;DHT22;36966;48.064;-0.792;2023-03-14T03:28:34;17.70;56.00
50955;DHT22;36966;48.064;-0.792;2023-03-14T03:30:53;17.70;56.00
50955;DHT22;36966;48.064;-0.792;2023-03-14T03:33:13;17.70;56.00
50955;DHT22;36966;48.064;-0.792;2023-03-14T03:35:32;17.70;55.90
50955;DHT22;36966;48.064;-0.792;2023-03-14T03:37:51;17.70;55.80
50955;DHT22;36966;48.064;-0.792;2023-03-14T03:40:11;17.70;55.90
50955;DHT22;36966;48.064;-0.792;2023-03-14T03:42:30;17.70;55.70
50955;DHT22;36966;48.064;-0.792;2023-03-14T03:44:49;17.70;55.80
50955;DHT22;36966;48.064;-0.792;2023-03-14T03:47:08;17.70;55.80
50955;DHT22;36966;48.064;-0.792;2023-03-14T03:49:29;17.70;55.80
50955;DHT22;36966;48.064;-0.792;2023-03-14T03:51:49;17.70;55.80
50955;DHT22;36966;48.064;-0.792;2023-03-14T03:54:08;17.70;55.70
50955;DHT22;36966;48.064;-0.792;2023-03-14T03:56:27;17.70;55.80
50955;DHT22;36966;48.064;-0.792;2023-03-14T03:58:46;17.70;55.80
50955;DHT22;36966;48.064;-0.792;2023-03-14T04:01:06;17.70;55.70
50955;DHT22;36966;48.064;-0.792;2023-03-14T04:03:28;17.70;55.60
50955;DHT22;36966;48.064;-0.792;2023-03-14T04:08:19;17.70;55.50
50955;DHT22;36966;48.064;-0.792;2023-03-14T04:10:38;17.60;55.60
50955;DHT22;36966;48.064;-0.792;2023-03-14T04:12:57;17.70;55.50
50955;DHT22;36966;48.064;-0.792;2023-03-14T04:15:17;17.70;55.60
50955;DHT22;36966;48.064;-0.792;2023-03-14T04:17:36;17.70;55.50
50955;DHT22;36966;48.064;-0.792;2023-03-14T04:19:55;17.70;55.50
50955;DHT22;36966;48.064;-0.792;2023-03-14T04:22:15;17.60;55.50
50955;DHT22;36966;48.064;-0.792;2023-03-14T04:24:34;17.70;55.40
50955;DHT22;36966;48.064;-0.792;2023-03-14T04:26:53;17.60;55.40
50955;DHT22;36966;48.064;-0.792;2023-03-14T04:29:12;17.60;55.40
50955;DHT22;36966;48.064;-0.792;2023-03-14T04:31:31;17.60;55.40
50955;DHT22;36966;48.064;-0.792;2023-03-14T04:33:51;17.60;55.40
50955;DHT22;36966;48.064;-0.792;2023-03-14T04:36:10;17.60;55.30
50955;DHT22;36966;48.064;-0.792;2023-03-14T04:38:30;17.60;55.40
50955;DHT22;36966;48.064;-0.792;2023-03-14T04:40:49;17.60;55.40
50955;DHT22;36966;48.064;-0.792;2023-03-14T04:43:10;17.60;54.50
50955;DHT22;36966;48.064;-0.792;2023-03-14T04:45:29;17.60;55.30
50955;DHT22;36966;48.064;-0.792;2023-03-14T04:47:48;17.60;55.20
50955;DHT22;36966;48.064;-0.792;2023-03-14T04:50:09;17.50;55.10
50955;DHT22;36966;48.064;-0.792;2023-03-14T04:52:28;17.60;55.20
50955;DHT22;36966;48.064;-0.792;2023-03-14T04:54:47;17.60;55.20
50955;DHT22;36966;48.064;-0.792;2023-03-14T04:57:07;17.60;55.20
50955;DHT22;36966;48.064;-0.792;2023-03-14T04:59:26;17.60;55.30
50955;DHT22;36966;48.064;-0.792;2023-03-14T05:01:45;17.60;55.30
50955;DHT22;36966;48.064;-0.792;2023-03-14T05:04:04;17.60;55.20
50955;DHT22;36966;48.064;-0.792;2023-03-14T05:06:23;17.50;55.20
50955;DHT22;36966;48.064;-0.792;2023-03-14T05:08:42;17.50;55.20
50955;DHT22;36966;48.064;-0.792;2023-03-14T05:11:02;17.50;55.20
50955;DHT22;36966;48.064;-0.792;2023-03-14T05:13:22;17.60;55.20
50955;DHT22;36966;48.064;-0.792;2023-03-14T05:15:41;17.60;55.20
50955;DHT22;36966;48.064;-0.792;2023-03-14T05:18:00;17.50;55.20
50955;DHT22;36966;48.064;-0.792;2023-03-14T05:20:20;17.50;55.20
50955;DHT22;36966;48.064;-0.792;2023-03-14T05:22:40;17.50;55.20
50955;DHT22;36966;48.064;-0.792;2023-03-14T05:24:59;17.50;55.20
50955;DHT22;36966;48.064;-0.792;2023-03-14T05:27:18;17.60;55.20
50955;DHT22;36966;48.064;-0.792;2023-03-14T05:29:37;17.50;55.20
50955;DHT22;36966;48.064;-0.792;2023-03-14T05:31:56;17.50;55.10
50955;DHT22;36966;48.064;-0.792;2023-03-14T05:34:15;17.50;55.20
50955;DHT22;36966;48.064;-0.792;2023-03-14T05:36:34;17.50;55.10
50955;DHT22;36966;48.064;-0.792;2023-03-14T05:38:54;17.50;55.10
50955;DHT22;36966;48.064;-0.792;2023-03-14T05:41:13;17.50;55.10
50955;DHT22;36966;48.064;-0.792;2023-03-14T05:43:32;17.40;54.80
50955;DHT22;36966;48.064;-0.792;2023-03-14T05:45:52;17.50;54.90
50955;DHT22;36966;48.064;-0.792;2023-03-14T05:48:11;17.50;54.80
50955;DHT22;36966;48.064;-0.792;2023-03-14T05:50:31;17.50;54.80
50955;DHT22;36966;48.064;-0.792;2023-03-14T05:52:50;17.50;54.70
50955;DHT22;36966;48.064;-0.792;2023-03-14T05:55:09;17.50;54.80
50955;DHT22;36966;48.064;-0.792;2023-03-14T05:57:28;17.50;54.80
50955;DHT22;36966;48.064;-0.792;2023-03-14T05:59:47;17.50;54.90
50955;DHT22;36966;48.064;-0.792;2023-03-14T06:02:06;17.50;54.90
50955;DHT22;36966;48.064;-0.792;2023-03-14T06:04:25;17.50;54.90
50955;DHT22;36966;48.064;-0.792;2023-03-14T06:06:45;17.50;54.90
50955;DHT22;36966;48.064;-0.792;2023-03-14T06:09:04;17.50;54.90
50955;DHT22;36966;48.064;-0.792;2023-03-14T06:11:24;17.50;54.90
50955;DHT22;36966;48.064;-0.792;2023-03-14T06:13:43;17.40;54.80
50955;DHT22;36966;48.064;-0.792;2023-03-14T06:16:03;17.50;54.90
50955;DHT22;36966;48.064;-0.792;2023-03-14T06:18:22;17.40;54.90
50955;DHT22;36966;48.064;-0.792;2023-03-14T06:20:41;17.40;54.90
50955;DHT22;36966;48.064;-0.792;2023-03-14T06:23:00;17.40;54.90
50955;DHT22;36966;48.064;-0.792;2023-03-14T06:25:19;17.40;54.80
50955;DHT22;36966;48.064;-0.792;2023-03-14T06:27:38;17.40;54.80
50955;DHT22;36966;48.064;-0.792;2023-03-14T06:29:58;17.40;54.80
50955;DHT22;36966;48.064;-0.792;2023-03-14T06:32:17;17.40;54.80
50955;DHT22;36966;48.064;-0.792;2023-03-14T06:34:37;17.40;54.80
50955;DHT22;36966;48.064;-0.792;2023-03-14T06:36:57;17.40;54.80
50955;DHT22;36966;48.064;-0.792;2023-03-14T06:39:16;17.40;54.80
50955;DHT22;36966;48.064;-0.792;2023-03-14T06:41:36;17.40;54.70
50955;DHT22;36966;48.064;-0.792;2023-03-14T06:43:55;17.40;54.70
50955;DHT22;36966;48.064;-0.792;2023-03-14T06:46:14;17.40;54.60
50955;DHT22;36966;48.064;-0.792;2023-03-14T06:48:34;17.40;54.60
50955;DHT22;36966;48.064;-0.792;2023-03-14T06:50:53;17.40;54.60
50955;DHT22;36966;48.064;-0.792;2023-03-14T06:53:12;17.40;54.30
50955;DHT22;36966;48.064;-0.792;2023-03-14T06:55:31;17.40;54.30
50955;DHT22;36966;48.064;-0.792;2023-03-14T06:57:50;17.40;54.20
50955;DHT22;36966;48.064;-0.792;2023-03-14T07:00:11;17.40;54.20
50955;DHT22;36966;48.064;-0.792;2023-03-14T07:02:31;17.40;54.20
50955;DHT22;36966;48.064;-0.792;2023-03-14T07:04:50;17.40;54.10
50955;DHT22;36966;48.064;-0.792;2023-03-14T07:07:09;17.50;54.10
50955;DHT22;36966;48.064;-0.792;2023-03-14T07:09:28;17.40;54.10
50955;DHT22;36966;48.064;-0.792;2023-03-14T07:11:47;17.40;54.00
50955;DHT22;36966;48.064;-0.792;2023-03-14T07:14:06;17.40;54.00
50955;DHT22;36966;48.064;-0.792;2023-03-14T07:16:26;17.40;54.00
50955;DHT22;36966;48.064;-0.792;2023-03-14T07:18:47;17.40;54.00
50955;DHT22;36966;48.064;-0.792;2023-03-14T07:21:08;17.50;54.00
50955;DHT22;36966;48.064;-0.792;2023-03-14T07:23:31;17.50;54.00
50955;DHT22;36966;48.064;-0.792;2023-03-14T07:25:50;17.40;54.00
50955;DHT22;36966;48.064;-0.792;2023-03-14T07:28:10;17.40;53.90
50955;DHT22;36966;48.064;-0.792;2023-03-14T07:30:30;17.40;53.80
50955;DHT22;36966;48.064;-0.792;2023-03-14T07:32:49;17.40;53.80
50955;DHT22;36966;48.064;-0.792;2023-03-14T07:35:09;17.40;53.80
50955;DHT22;36966;48.064;-0.792;2023-03-14T07:37:28;17.40;53.70
50955;DHT22;36966;48.064;-0.792;2023-03-14T07:39:47;17.40;53.70
50955;DHT22;36966;48.064;-0.792;2023-03-14T07:42:06;17.40;53.70
50955;DHT22;36966;48.064;-0.792;2023-03-14T07:44:25;17.40;53.70
50955;DHT22;36966;48.064;-0.792;2023-03-14T07:46:44;17.50;53.70
50955;DHT22;36966;48.064;-0.792;2023-03-14T07:49:03;17.40;53.70
50955;DHT22;36966;48.064;-0.792;2023-03-14T07:51:23;17.40;53.70
50955;DHT22;36966;48.064;-0.792;2023-03-14T07:53:42;17.40;53.70
50955;DHT22;36966;48.064;-0.792;2023-03-14T07:56:02;17.40;53.70
50955;DHT22;36966;48.064;-0.792;2023-03-14T07:58:22;17.40;53.60
50955;DHT22;36966;48.064;-0.792;2023-03-14T08:00:41;17.40;53.70
50955;DHT22;36966;48.064;-0.792;2023-03-14T08:03:00;17.40;53.60
50955;DHT22;36966;48.064;-0.792;2023-03-14T08:05:19;17.40;53.60
50955;DHT22;36966;48.064;-0.792;2023-03-14T08:07:39;17.40;53.60
50955;DHT22;36966;48.064;-0.792;2023-03-14T08:09:58;17.40;53.60
50955;DHT22;36966;48.064;-0.792;2023-03-14T08:12:17;17.40;53.60
50955;DHT22;36966;48.064;-0.792;2023-03-14T08:14:36;17.50;53.50
50955;DHT22;36966;48.064;-0.792;2023-03-14T08:16:55;17.40;53.40
50955;DHT22;36966;48.064;-0.792;2023-03-14T08:19:14;17.40;53.40
50955;DHT22;36966;48.064;-0.792;2023-03-14T08:21:33;17.50;53.40
50955;DHT22;36966;48.064;-0.792;2023-03-14T08:23:52;17.50;53.40
50955;DHT22;36966;48.064;-0.792;2023-03-14T08:26:11;17.60;53.50
50955;DHT22;36966;48.064;-0.792;2023-03-14T08:28:30;17.60;53.40
50955;DHT22;36966;48.064;-0.792;2023-03-14T08:30:54;17.70;53.10
50955;DHT22;36966;48.064;-0.792;2023-03-14T08:33:14;17.70;53.10
50955;DHT22;36966;48.064;-0.792;2023-03-14T08:35:33;17.70;53.00
50955;DHT22;36966;48.064;-0.792;2023-03-14T08:37:52;17.70;52.90
50955;DHT22;36966;48.064;-0.792;2023-03-14T08:40:12;17.70;52.90
50955;DHT22;36966;48.064;-0.792;2023-03-14T08:42:32;17.70;52.20
50955;DHT22;36966;48.064;-0.792;2023-03-14T08:44:52;17.70;52.60
50955;DHT22;36966;48.064;-0.792;2023-03-14T08:47:12;17.80;52.50
50955;DHT22;36966;48.064;-0.792;2023-03-14T08:49:31;17.70;52.60
50955;DHT22;36966;48.064;-0.792;2023-03-14T08:51:50;17.80;52.50
50955;DHT22;36966;48.064;-0.792;2023-03-14T08:54:10;17.90;52.20
50955;DHT22;36966;48.064;-0.792;2023-03-14T08:56:30;17.90;52.00
50955;DHT22;36966;48.064;-0.792;2023-03-14T08:58:49;18.00;52.20
50955;DHT22;36966;48.064;-0.792;2023-03-14T09:01:09;18.00;52.20
50955;DHT22;36966;48.064;-0.792;2023-03-14T09:03:29;18.00;52.10
50955;DHT22;36966;48.064;-0.792;2023-03-14T09:05:50;18.10;52.10
50955;DHT22;36966;48.064;-0.792;2023-03-14T09:08:10;18.10;51.30
50955;DHT22;36966;48.064;-0.792;2023-03-14T09:10:29;18.10;51.00
50955;DHT22;36966;48.064;-0.792;2023-03-14T09:12:48;18.10;51.40
50955;DHT22;36966;48.064;-0.792;2023-03-14T09:15:07;18.10;51.00
50955;DHT22;36966;48.064;-0.792;2023-03-14T09:17:27;18.20;51.20
50955;DHT22;36966;48.064;-0.792;2023-03-14T09:19:46;18.20;51.30
50955;DHT22;36966;48.064;-0.792;2023-03-14T09:22:05;18.20;51.40
50955;DHT22;36966;48.064;-0.792;2023-03-14T09:24:24;18.20;51.60
50955;DHT22;36966;48.064;-0.792;2023-03-14T09:26:43;18.20;51.50
50955;DHT22;36966;48.064;-0.792;2023-03-14T09:29:02;18.20;51.20
50955;DHT22;36966;48.064;-0.792;2023-03-14T09:31:21;18.20;51.40
50955;DHT22;36966;48.064;-0.792;2023-03-14T09:33:41;18.30;51.40
50955;DHT22;36966;48.064;-0.792;2023-03-14T09:36:01;18.20;51.50
50955;DHT22;36966;48.064;-0.792;2023-03-14T09:38:20;18.20;51.30
50955;DHT22;36966;48.064;-0.792;2023-03-14T09:40:40;18.20;51.20
50955;DHT22;36966;48.064;-0.792;2023-03-14T09:43:00;18.30;51.30
50955;DHT22;36966;48.064;-0.792;2023-03-14T09:45:26;18.30;51.10
50955;DHT22;36966;48.064;-0.792;2023-03-14T09:47:47;18.30;50.90
50955;DHT22;36966;48.064;-0.792;2023-03-14T09:50:13;18.30;50.90
50955;DHT22;36966;48.064;-0.792;2023-03-14T09:52:38;18.30;50.90
50955;DHT22;36966;48.064;-0.792;2023-03-14T09:55:04;18.30;50.80
50955;DHT22;36966;48.064;-0.792;2023-03-14T09:57:25;18.30;50.90
50955;DHT22;36966;48.064;-0.792;2023-03-14T09:59:46;18.40;50.90
50955;DHT22;36966;48.064;-0.792;2023-03-14T10:02:19;18.40;50.90
50955;DHT22;36966;48.064;-0.792;2023-03-14T10:04:40;18.40;51.00
50955;DHT22;36966;48.064;-0.792;2023-03-14T10:07:03;18.40;51.00
50955;DHT22;36966;48.064;-0.792;2023-03-14T10:09:23;18.40;50.40
50955;DHT22;36966;48.064;-0.792;2023-03-14T10:11:44;18.40;50.70
50955;DHT22;36966;48.064;-0.792;2023-03-14T10:14:10;18.50;50.10
50955;DHT22;36966;48.064;-0.792;2023-03-14T10:16:34;18.50;50.50
50955;DHT22;36966;48.064;-0.792;2023-03-14T10:19:02;18.50;50.20
50955;DHT22;36966;48.064;-0.792;2023-03-14T10:21:27;18.50;50.30
50955;DHT22;36966;48.064;-0.792;2023-03-14T10:23:46;18.50;50.20
50955;DHT22;36966;48.064;-0.792;2023-03-14T10:29:12;18.50;49.60
50955;DHT22;36966;48.064;-0.792;2023-03-14T10:31:25;18.50;49.40
50955;DHT22;36966;48.064;-0.792;2023-03-14T10:33:59;18.50;50.00
50955;DHT22;36966;48.064;-0.792;2023-03-14T10:36:21;18.50;50.00
50955;DHT22;36966;48.064;-0.792;2023-03-14T10:38:41;18.50;49.50
50955;DHT22;36966;48.064;-0.792;2023-03-14T10:41:01;18.50;49.70
50955;DHT22;36966;48.064;-0.792;2023-03-14T10:43:33;18.50;48.90
50955;DHT22;36966;48.064;-0.792;2023-03-14T10:45:57;18.40;49.70
50955;DHT22;36966;48.064;-0.792;2023-03-14T10:48:23;18.50;49.80
50955;DHT22;36966;48.064;-0.792;2023-03-14T10:50:55;18.40;50.10
50955;DHT22;36966;48.064;-0.792;2023-03-14T10:53:17;18.50;50.20
50955;DHT22;36966;48.064;-0.792;2023-03-14T10:55:42;18.50;50.10
50955;DHT22;36966;48.064;-0.792;2023-03-14T10:58:02;18.40;50.10
50955;DHT22;36966;48.064;-0.792;2023-03-14T11:00:23;18.50;50.20
50955;DHT22;36966;48.064;-0.792;2023-03-14T11:03:07;18.50;50.30
50955;DHT22;36966;48.064;-0.792;2023-03-14T11:05:34;18.40;49.90
50955;DHT22;36966;48.064;-0.792;2023-03-14T11:10:44;18.50;49.10
50955;DHT22;36966;48.064;-0.792;2023-03-14T11:13:31;18.50;49.30
50955;DHT22;36966;48.064;-0.792;2023-03-14T11:26:33;18.60;49.10
50955;DHT22;36966;48.064;-0.792;2023-03-14T11:29:19;18.60;49.20
50955;DHT22;36966;48.064;-0.792;2023-03-14T11:31:40;18.60;49.00
50955;DHT22;36966;48.064;-0.792;2023-03-14T11:34:26;18.60;48.90
50955;DHT22;36966;48.064;-0.792;2023-03-14T11:37:01;18.70;49.20
50955;DHT22;36966;48.064;-0.792;2023-03-14T11:39:26;18.70;49.10
50955;DHT22;36966;48.064;-0.792;2023-03-14T11:41:57;18.70;49.00
50955;DHT22;36966;48.064;-0.792;2023-03-14T11:44:23;18.70;49.10
50955;DHT22;36966;48.064;-0.792;2023-03-14T11:46:59;18.70;49.00
50955;DHT22;36966;48.064;-0.792;2023-03-14T11:49:34;18.70;49.20
50955;DHT22;36966;48.064;-0.792;2023-03-14T11:52:03;18.70;49.40
50955;DHT22;36966;48.064;-0.792;2023-03-14T11:54:42;18.70;47.90
50955;DHT22;36966;48.064;-0.792;2023-03-14T11:57:10;18.60;48.80
50955;DHT22;36966;48.064;-0.792;2023-03-14T12:02:31;18.60;48.30
50955;DHT22;36966;48.064;-0.792;2023-03-14T12:05:23;18.60;46.80
50955;DHT22;36966;48.064;-0.792;2023-03-14T12:10:23;18.70;47.90
50955;DHT22;36966;48.064;-0.792;2023-03-14T12:12:42;18.70;47.80
50955;DHT22;36966;48.064;-0.792;2023-03-14T12:15:04;18.70;48.10
50955;DHT22;36966;48.064;-0.792;2023-03-14T12:17:36;18.70;48.00
50955;DHT22;36966;48.064;-0.792;2023-03-14T12:20:19;18.80;47.60
50955;DHT22;36966;48.064;-0.792;2023-03-14T12:22:46;18.80;47.10
50955;DHT22;36966;48.064;-0.792;2023-03-14T12:25:19;18.90;47.50
50955;DHT22;36966;48.064;-0.792;2023-03-14T12:35:43;18.80;47.90
50955;DHT22;36966;48.064;-0.792;2023-03-14T12:38:14;18.80;47.70
50955;DHT22;36966;48.064;-0.792;2023-03-14T12:40:41;18.80;47.80
50955;DHT22;36966;48.064;-0.792;2023-03-14T12:43:31;18.90;48.00
50955;DHT22;36966;48.064;-0.792;2023-03-14T12:48:32;18.90;48.30
50955;DHT22;36966;48.064;-0.792;2023-03-14T12:51:00;18.90;47.70
50955;DHT22;36966;48.064;-0.792;2023-03-14T12:53:50;18.90;47.60
50955;DHT22;36966;48.064;-0.792;2023-03-14T12:56:25;18.90;47.40
50955;DHT22;36966;48.064;-0.792;2023-03-14T13:01:21;18.90;47.60
50955;DHT22;36966;48.064;-0.792;2023-03-14T13:03:57;18.80;48.00
50955;DHT22;36966;48.064;-0.792;2023-03-14T13:06:46;18.80;48.10
50955;DHT22;36966;48.064;-0.792;2023-03-14T13:11:45;18.70;48.30
50955;DHT22;36966;48.064;-0.792;2023-03-14T13:14:10;18.70;48.40
50955;DHT22;36966;48.064;-0.792;2023-03-14T13:16:29;18.70;47.70
50955;DHT22;36966;48.064;-0.792;2023-03-14T13:19:11;18.70;48.60
50955;DHT22;36966;48.064;-0.792;2023-03-14T13:21:35;18.70;48.50
50955;DHT22;36966;48.064;-0.792;2023-03-14T13:24:07;18.70;48.60
50955;DHT22;36966;48.064;-0.792;2023-03-14T13:26:54;18.70;48.70
50955;DHT22;36966;48.064;-0.792;2023-03-14T13:31:46;18.60;48.90
50955;DHT22;36966;48.064;-0.792;2023-03-14T13:34:09;18.60;48.90
50955;DHT22;36966;48.064;-0.792;2023-03-14T13:36:28;18.60;48.80
50955;DHT22;36966;48.064;-0.792;2023-03-14T13:38:56;18.60;48.50
50955;DHT22;36966;48.064;-0.792;2023-03-14T13:41:15;18.70;48.50
50955;DHT22;36966;48.064;-0.792;2023-03-14T13:43:39;18.60;48.50
50955;DHT22;36966;48.064;-0.792;2023-03-14T13:46:05;18.70;48.60
50955;DHT22;36966;48.064;-0.792;2023-03-14T13:48:28;18.60;48.60
50955;DHT22;36966;48.064;-0.792;2023-03-14T13:50:54;18.60;48.60
50955;DHT22;36966;48.064;-0.792;2023-03-14T13:53:16;18.60;48.70
50955;DHT22;36966;48.064;-0.792;2023-03-14T13:55:35;18.60;48.40
50955;DHT22;36966;48.064;-0.792;2023-03-14T13:57:55;18.60;48.60
50955;DHT22;36966;48.064;-0.792;2023-03-14T14:00:20;18.60;48.40
50955;DHT22;36966;48.064;-0.792;2023-03-14T14:02:39;18.60;48.60
50955;DHT22;36966;48.064;-0.792;2023-03-14T14:04:59;18.60;48.50
50955;DHT22;36966;48.064;-0.792;2023-03-14T14:07:19;18.60;48.40
50955;DHT22;36966;48.064;-0.792;2023-03-14T14:09:40;18.60;48.20
50955;DHT22;36966;48.064;-0.792;2023-03-14T14:12:12;18.60;48.40
50955;DHT22;36966;48.064;-0.792;2023-03-14T14:14:44;18.60;48.50
50955;DHT22;36966;48.064;-0.792;2023-03-14T14:17:11;18.60;48.60
50955;DHT22;36966;48.064;-0.792;2023-03-14T14:19:32;18.60;48.60
50955;DHT22;36966;48.064;-0.792;2023-03-14T14:21:53;18.60;48.70
50955;DHT22;36966;48.064;-0.792;2023-03-14T14:24:14;18.50;48.80
50955;DHT22;36966;48.064;-0.792;2023-03-14T14:26:34;18.50;48.80
50955;DHT22;36966;48.064;-0.792;2023-03-14T14:29:05;18.50;48.80
50955;DHT22;36966;48.064;-0.792;2023-03-14T14:31:24;18.50;48.90
50955;DHT22;36966;48.064;-0.792;2023-03-14T14:33:56;18.50;48.80
50955;DHT22;36966;48.064;-0.792;2023-03-14T14:36:42;18.50;49.00
50955;DHT22;36966;48.064;-0.792;2023-03-14T14:39:17;18.50;48.90
50955;DHT22;36966;48.064;-0.792;2023-03-14T14:41:40;18.40;48.90
50955;DHT22;36966;48.064;-0.792;2023-03-14T14:44:01;18.40;48.90
50955;DHT22;36966;48.064;-0.792;2023-03-14T14:46:21;18.50;48.80
50955;DHT22;36966;48.064;-0.792;2023-03-14T14:48:40;18.40;48.80
50955;DHT22;36966;48.064;-0.792;2023-03-14T14:51:02;18.50;48.60
50955;DHT22;36966;48.064;-0.792;2023-03-14T14:53:42;18.50;48.50
50955;DHT22;36966;48.064;-0.792;2023-03-14T14:56:19;18.50;48.50
50955;DHT22;36966;48.064;-0.792;2023-03-14T14:58:44;18.50;48.40
50955;DHT22;36966;48.064;-0.792;2023-03-14T15:01:15;18.50;48.40
50955;DHT22;36966;48.064;-0.792;2023-03-14T15:03:35;18.40;48.20
50955;DHT22;36966;48.064;-0.792;2023-03-14T15:05:55;18.40;48.20
50955;DHT22;36966;48.064;-0.792;2023-03-14T15:08:14;18.50;48.30
50955;DHT22;36966;48.064;-0.792;2023-03-14T15:10:33;18.40;48.20
50955;DHT22;36966;48.064;-0.792;2023-03-14T15:12:53;18.40;48.30
50955;DHT22;36966;48.064;-0.792;2023-03-14T15:15:12;18.40;48.30
50955;DHT22;36966;48.064;-0.792;2023-03-14T15:17:32;18.40;48.20
50955;DHT22;36966;48.064;-0.792;2023-03-14T15:19:51;18.40;48.20
50955;DHT22;36966;48.064;-0.792;2023-03-14T15:22:12;18.40;48.20
50955;DHT22;36966;48.064;-0.792;2023-03-14T15:24:32;18.40;48.20
50955;DHT22;36966;48.064;-0.792;2023-03-14T15:26:51;18.40;48.10
50955;DHT22;36966;48.064;-0.792;2023-03-14T15:29:12;18.40;48.20
50955;DHT22;36966;48.064;-0.792;2023-03-14T15:31:31;18.40;48.10